sensor_id;sensor_type;location;lat;lon;timestamp;temperature;humidity
7366;DHT22;3723;52.220;8.792;2024-02-14T00:01:31;6.10;1.00
7366;DHT22;3723;52.220;8.792;2024-02-14T00:03:59;6.20;1.00
7366;DHT22;3723;52.220;8.792;2024-02-14T00:06:27;6.20;1.00
7366;DHT22;3723;52.220;8.792;2024-02-14T00:08:55;6.30;1.00
7366;DHT22;3723;52.220;8.792;2024-02-14T00:11:22;6.40;1.00
7366;DHT22;3723;52.220;8.792;2024-02-14T00:13:49;6.50;1.00
7366;DHT22;3723;52.220;8.792;2024-02-14T00:16:16;6.60;1.00
7366;DHT22;3723;52.220;8.792;2024-02-14T00:18:43;6.60;99.90
7366;DHT22;3723;52.220;8.792;2024-02-14T00:21:10;6.70;99.90
7366;DHT22;3723;52.220;8.792;2024-02-14T00:23:38;6.70;99.90
7366;DHT22;3723;52.220;8.792;2024-02-14T00:26:06;6.80;99.90
7366;DHT22;3723;52.220;8.792;2024-02-14T00:28:33;6.90;99.90
7366;DHT22;3723;52.220;8.792;2024-02-14T00:31:00;6.90;99.90
7366;DHT22;3723;52.220;8.792;2024-02-14T00:33:27;6.90;99.90
7366;DHT22;3723;52.220;8.792;2024-02-14T00:35:54;6.90;99.90
7366;DHT22;3723;52.220;8.792;2024-02-14T00:38:20;6.90;99.90
7366;DHT22;3723;52.220;8.792;2024-02-14T00:40:47;6.90;99.90
7366;DHT22;3723;52.220;8.792;2024-02-14T00:43:17;6.90;99.90
7366;DHT22;3723;52.220;8.792;2024-02-14T00:45:44;7.00;99.90
7366;DHT22;3723;52.220;8.792;2024-02-14T00:48:11;7.10;99.90
7366;DHT22;3723;52.220;8.792;2024-02-14T00:50:37;7.20;99.90
7366;DHT22;3723;52.220;8.792;2024-02-14T00:53:04;7.20;99.90
7366;DHT22;3723;52.220;8.792;2024-02-14T00:55:31;7.30;99.90
7366;DHT22;3723;52.220;8.792;2024-02-14T00:57:58;7.30;99.90
7366;DHT22;3723;52.220;8.792;2024-02-14T01:00:26;7.30;99.90
7366;DHT22;3723;52.220;8.792;2024-02-14T01:02:53;7.40;99.90
7366;DHT22;3723;52.220;8.792;2024-02-14T01:05:21;7.40;99.90
7366;DHT22;3723;52.220;8.792;2024-02-14T01:07:49;7.40;99.90
7366;DHT22;3723;52.220;8.792;2024-02-14T01:10:16;7.50;99.90
7366;DHT22;3723;52.220;8.792;2024-02-14T01:12:44;7.50;99.90
7366;DHT22;3723;52.220;8.792;2024-02-14T01:15:11;7.50;99.90
7366;DHT22;3723;52.220;8.792;2024-02-14T01:17:40;7.50;99.90
7366;DHT22;3723;52.220;8.792;2024-02-14T01:20:07;7.50;99.90
7366;DHT22;3723;52.220;8.792;2024-02-14T01:22:35;7.60;99.90
7366;DHT22;3723;52.220;8.792;2024-02-14T01:25:02;7.60;99.90
7366;DHT22;3723;52.220;8.792;2024-02-14T01:27:30;7.70;99.90
7366;DHT22;3723;52.220;8.792;2024-02-14T01:29:58;7.60;99.90
7366;DHT22;3723;52.220;8.792;2024-02-14T01:32:26;7.60;99.90
7366;DHT22;3723;52.220;8.792;2024-02-14T01:34:56;7.70;99.90
7366;DHT22;3723;52.220;8.792;2024-02-14T01:37:23;7.50;99.90
7366;DHT22;3723;52.220;8.792;2024-02-14T01:39:50;7.40;99.90
7366;DHT22;3723;52.220;8.792;2024-02-14T01:42:17;7.30;99.90
7366;DHT22;3723;52.220;8.792;2024-02-14T01:44:44;7.10;99.90
7366;DHT22;3723;52.220;8.792;2024-02-14T01:47:11;7.00;99.90
7366;DHT22;3723;52.220;8.792;2024-02-14T01:49:39;7.00;99.90
7366;DHT22;3723;52.220;8.792;2024-02-14T01:52:11;6.90;99.90
7366;DHT22;3723;52.220;8.792;2024-02-14T01:54:38;6.90;99.90
7366;DHT22;3723;52.220;8.792;2024-02-14T01:57:08;6.90;99.90
7366;DHT22;3723;52.220;8.792;2024-02-14T01:59:36;6.90;99.90
7366;DHT22;3723;52.220;8.792;2024-02-14T02:02:04;6.90;99.90
7366;DHT22;3723;52.220;8.792;2024-02-14T02:04:32;6.90;99.90
7366;DHT22;3723;52.220;8.792;2024-02-14T02:07:00;6.90;99.90
7366;DHT22;3723;52.220;8.792;2024-02-14T02:09:28;6.90;99.90
7366;DHT22;3723;52.220;8.792;2024-02-14T02:11:57;7.00;99.90
7366;DHT22;3723;52.220;8.792;2024-02-14T02:14:24;7.00;99.90
7366;DHT22;3723;52.220;8.792;2024-02-14T02:16:51;7.00;99.90
7366;DHT22;3723;52.220;8.792;2024-02-14T02:19:19;7.10;99.90
7366;DHT22;3723;52.220;8.792;2024-02-14T02:21:45;7.10;99.90
7366;DHT22;3723;52.220;8.792;2024-02-14T02:24:19;7.10;1.00
7366;DHT22;3723;52.220;8.792;2024-02-14T02:26:46;7.10;1.00
7366;DHT22;3723;52.220;8.792;2024-02-14T02:29:13;7.10;1.00
7366;DHT22;3723;52.220;8.792;2024-02-14T02:31:42;7.10;1.00
7366;DHT22;3723;52.220;8.792;2024-02-14T02:34:09;7.10;1.00
7366;DHT22;3723;52.220;8.792;2024-02-14T02:36:36;7.10;1.00
7366;DHT22;3723;52.220;8.792;2024-02-14T02:39:03;7.10;1.00
7366;DHT22;3723;52.220;8.792;2024-02-14T02:41:33;7.20;1.00
7366;DHT22;3723;52.220;8.792;2024-02-14T02:44:00;7.20;1.00
7366;DHT22;3723;52.220;8.792;2024-02-14T02:46:27;7.20;1.00
7366;DHT22;3723;52.220;8.792;2024-02-14T02:48:55;7.20;1.00
7366;DHT22;3723;52.220;8.792;2024-02-14T02:51:23;7.20;1.00
7366;DHT22;3723;52.220;8.792;2024-02-14T02:53:49;7.20;1.00
7366;DHT22;3723;52.220;8.792;2024-02-14T02:56:19;7.20;1.00
7366;DHT22;3723;52.220;8.792;2024-02-14T02:58:48;7.20;1.00
7366;DHT22;3723;52.220;8.792;2024-02-14T03:01:15;7.20;1.00
7366;DHT22;3723;52.220;8.792;2024-02-14T03:03:42;7.20;1.00
7366;DHT22;3723;52.220;8.792;2024-02-14T03:06:09;7.20;1.00
7366;DHT22;3723;52.220;8.792;2024-02-14T03:08:37;7.20;1.00
7366;DHT22;3723;52.220;8.792;2024-02-14T03:11:04;7.20;1.00
7366;DHT22;3723;52.220;8.792;2024-02-14T03:13:32;7.10;1.00
7366;DHT22;3723;52.220;8.792;2024-02-14T03:16:00;7.20;1.00
7366;DHT22;3723;52.220;8.792;2024-02-14T03:18:27;7.20;1.00
7366;DHT22;3723;52.220;8.792;2024-02-14T03:20:54;7.30;1.00
7366;DHT22;3723;52.220;8.792;2024-02-14T03:23:21;7.30;1.00
7366;DHT22;3723;52.220;8.792;2024-02-14T03:25:49;7.30;1.00
7366;DHT22;3723;52.220;8.792;2024-02-14T03:28:17;7.20;1.00
7366;DHT22;3723;52.220;8.792;2024-02-14T03:30:44;7.20;1.00
7366;DHT22;3723;52.220;8.792;2024-02-14T03:33:16;7.10;1.00
7366;DHT22;3723;52.220;8.792;2024-02-14T03:35:43;7.10;1.00
7366;DHT22;3723;52.220;8.792;2024-02-14T03:38:11;7.00;1.00
7366;DHT22;3723;52.220;8.792;2024-02-14T03:40:40;6.90;1.00
7366;DHT22;3723;52.220;8.792;2024-02-14T03:43:07;6.80;1.00
7366;DHT22;3723;52.220;8.792;2024-02-14T03:45:36;6.70;1.00
7366;DHT22;3723;52.220;8.792;2024-02-14T03:48:04;6.70;1.00
7366;DHT22;3723;52.220;8.792;2024-02-14T03:50:33;6.70;1.00
7366;DHT22;3723;52.220;8.792;2024-02-14T03:52:59;6.60;1.00
7366;DHT22;3723;52.220;8.792;2024-02-14T03:55:27;6.60;1.00
7366;DHT22;3723;52.220;8.792;2024-02-14T03:57:55;6.60;1.00
7366;DHT22;3723;52.220;8.792;2024-02-14T04:00:22;6.60;1.00
7366;DHT22;3723;52.220;8.792;2024-02-14T04:02:49;6.60;1.00
7366;DHT22;3723;52.220;8.792;2024-02-14T04:05:19;6.50;1.00
7366;DHT22;3723;52.220;8.792;2024-02-14T04:07:47;6.50;1.00
7366;DHT22;3723;52.220;8.792;2024-02-14T04:10:17;6.50;1.00
7366;DHT22;3723;52.220;8.792;2024-02-14T04:12:44;6.50;1.00
7366;DHT22;3723;52.220;8.792;2024-02-14T04:15:11;6.50;1.00
7366;DHT22;3723;52.220;8.792;2024-02-14T04:17:38;6.50;1.00
7366;DHT22;3723;52.220;8.792;2024-02-14T04:20:07;6.50;1.00
7366;DHT22;3723;52.220;8.792;2024-02-14T04:22:35;6.50;1.00
7366;DHT22;3723;52.220;8.792;2024-02-14T04:25:04;6.60;1.00
7366;DHT22;3723;52.220;8.792;2024-02-14T04:27:31;6.50;1.00
7366;DHT22;3723;52.220;8.792;2024-02-14T04:29:57;6.50;1.00
7366;DHT22;3723;52.220;8.792;2024-02-14T04:32:24;6.60;1.00
7366;DHT22;3723;52.220;8.792;2024-02-14T04:34:52;6.60;1.00
7366;DHT22;3723;52.220;8.792;2024-02-14T04:37:19;6.60;1.00
7366;DHT22;3723;52.220;8.792;2024-02-14T04:39:46;6.70;1.00
7366;DHT22;3723;52.220;8.792;2024-02-14T04:42:16;6.70;1.00
7366;DHT22;3723;52.220;8.792;2024-02-14T04:44:43;6.70;1.00
7366;DHT22;3723;52.220;8.792;2024-02-14T04:47:11;6.70;1.00
7366;DHT22;3723;52.220;8.792;2024-02-14T04:49:37;6.70;1.00
7366;DHT22;3723;52.220;8.792;2024-02-14T04:52:05;6.70;1.00
7366;DHT22;3723;52.220;8.792;2024-02-14T04:54:33;6.70;1.00
7366;DHT22;3723;52.220;8.792;2024-02-14T04:59:46;6.80;1.00
7366;DHT22;3723;52.220;8.792;2024-02-14T05:02:13;6.90;1.00
7366;DHT22;3723;52.220;8.792;2024-02-14T05:04:40;6.90;1.00
7366;DHT22;3723;52.220;8.792;2024-02-14T05:07:08;6.90;1.00
7366;DHT22;3723;52.220;8.792;2024-02-14T05:09:35;6.90;1.00
7366;DHT22;3723;52.220;8.792;2024-02-14T05:12:01;7.00;1.00
7366;DHT22;3723;52.220;8.792;2024-02-14T05:14:29;7.00;1.00
7366;DHT22;3723;52.220;8.792;2024-02-14T05:16:58;7.00;1.00
7366;DHT22;3723;52.220;8.792;2024-02-14T05:19:26;7.00;1.00
7366;DHT22;3723;52.220;8.792;2024-02-14T05:21:54;7.10;1.00
7366;DHT22;3723;52.220;8.792;2024-02-14T05:24:21;7.10;1.70
7366;DHT22;3723;52.220;8.792;2024-02-14T05:26:47;7.10;1.00
7366;DHT22;3723;52.220;8.792;2024-02-14T05:29:14;7.10;1.00
7366;DHT22;3723;52.220;8.792;2024-02-14T05:31:45;7.10;1.00
7366;DHT22;3723;52.220;8.792;2024-02-14T05:34:14;7.20;3.60
7366;DHT22;3723;52.220;8.792;2024-02-14T05:36:40;7.20;4.70
7366;DHT22;3723;52.220;8.792;2024-02-14T05:39:08;7.20;1.00
7366;DHT22;3723;52.220;8.792;2024-02-14T05:41:35;7.20;8.10
7366;DHT22;3723;52.220;8.792;2024-02-14T05:44:03;7.30;8.60
7366;DHT22;3723;52.220;8.792;2024-02-14T05:46:30;7.30;15.50
7366;DHT22;3723;52.220;8.792;2024-02-14T05:48:57;7.40;2.50
7366;DHT22;3723;52.220;8.792;2024-02-14T05:51:25;7.40;1.00
7366;DHT22;3723;52.220;8.792;2024-02-14T05:53:52;7.40;1.00
7366;DHT22;3723;52.220;8.792;2024-02-14T05:56:19;7.50;1.00
7366;DHT22;3723;52.220;8.792;2024-02-14T05:58:45;7.50;1.00
7366;DHT22;3723;52.220;8.792;2024-02-14T06:01:12;7.50;1.00
7366;DHT22;3723;52.220;8.792;2024-02-14T06:03:41;7.50;1.00
7366;DHT22;3723;52.220;8.792;2024-02-14T06:06:08;7.50;1.00
7366;DHT22;3723;52.220;8.792;2024-02-14T06:08:36;7.50;1.00
7366;DHT22;3723;52.220;8.792;2024-02-14T06:11:03;7.50;1.00
7366;DHT22;3723;52.220;8.792;2024-02-14T06:13:30;7.50;1.00
7366;DHT22;3723;52.220;8.792;2024-02-14T06:15:57;7.60;1.00
7366;DHT22;3723;52.220;8.792;2024-02-14T06:18:24;7.60;1.00
7366;DHT22;3723;52.220;8.792;2024-02-14T06:20:50;7.60;1.00
7366;DHT22;3723;52.220;8.792;2024-02-14T06:23:17;7.60;1.00
7366;DHT22;3723;52.220;8.792;2024-02-14T06:25:46;7.60;1.00
7366;DHT22;3723;52.220;8.792;2024-02-14T06:28:12;7.60;1.00
7366;DHT22;3723;52.220;8.792;2024-02-14T06:30:39;7.70;1.00
7366;DHT22;3723;52.220;8.792;2024-02-14T06:33:06;7.60;1.00
7366;DHT22;3723;52.220;8.792;2024-02-14T06:35:33;7.70;1.00
7366;DHT22;3723;52.220;8.792;2024-02-14T06:38:00;7.70;1.00
7366;DHT22;3723;52.220;8.792;2024-02-14T06:40:27;7.70;1.00
7366;DHT22;3723;52.220;8.792;2024-02-14T06:42:56;7.70;1.00
7366;DHT22;3723;52.220;8.792;2024-02-14T06:45:25;7.70;1.00
7366;DHT22;3723;52.220;8.792;2024-02-14T06:47:53;7.70;1.00
7366;DHT22;3723;52.220;8.792;2024-02-14T06:50:19;7.70;1.00
7366;DHT22;3723;52.220;8.792;2024-02-14T06:52:46;7.80;1.00
7366;DHT22;3723;52.220;8.792;2024-02-14T06:55:13;7.70;1.00
7366;DHT22;3723;52.220;8.792;2024-02-14T06:57:40;7.80;1.00
7366;DHT22;3723;52.220;8.792;2024-02-14T07:00:09;7.80;1.00
7366;DHT22;3723;52.220;8.792;2024-02-14T07:02:37;7.80;1.00
7366;DHT22;3723;52.220;8.792;2024-02-14T07:05:05;7.80;1.00
7366;DHT22;3723;52.220;8.792;2024-02-14T07:07:33;7.90;1.00
7366;DHT22;3723;52.220;8.792;2024-02-14T07:10:00;7.80;1.00
7366;DHT22;3723;52.220;8.792;2024-02-14T07:12:27;7.90;1.00
7366;DHT22;3723;52.220;8.792;2024-02-14T07:14:55;7.90;1.00
7366;DHT22;3723;52.220;8.792;2024-02-14T07:17:24;7.90;1.00
7366;DHT22;3723;52.220;8.792;2024-02-14T07:19:50;8.00;1.00
7366;DHT22;3723;52.220;8.792;2024-02-14T07:22:17;8.00;1.00
7366;DHT22;3723;52.220;8.792;2024-02-14T07:24:44;8.00;1.00
7366;DHT22;3723;52.220;8.792;2024-02-14T07:27:12;8.10;1.00
7366;DHT22;3723;52.220;8.792;2024-02-14T07:29:39;8.10;3.90
7366;DHT22;3723;52.220;8.792;2024-02-14T07:32:06;8.10;7.30
7366;DHT22;3723;52.220;8.792;2024-02-14T07:34:34;8.10;6.90
7366;DHT22;3723;52.220;8.792;2024-02-14T07:37:01;8.20;12.60
7366;DHT22;3723;52.220;8.792;2024-02-14T07:39:28;8.20;2.20
7366;DHT22;3723;52.220;8.792;2024-02-14T07:41:54;8.20;1.00
7366;DHT22;3723;52.220;8.792;2024-02-14T07:44:22;8.20;1.00
7366;DHT22;3723;52.220;8.792;2024-02-14T07:46:49;8.30;14.60
7366;DHT22;3723;52.220;8.792;2024-02-14T07:49:16;8.30;17.00
7366;DHT22;3723;52.220;8.792;2024-02-14T07:51:44;8.40;14.60
7366;DHT22;3723;52.220;8.792;2024-02-14T07:54:11;8.40;8.20
7366;DHT22;3723;52.220;8.792;2024-02-14T07:56:38;8.40;4.10
7366;DHT22;3723;52.220;8.792;2024-02-14T07:59:05;8.40;1.00
7366;DHT22;3723;52.220;8.792;2024-02-14T08:01:32;8.50;1.00
7366;DHT22;3723;52.220;8.792;2024-02-14T08:03:59;8.40;1.00
7366;DHT22;3723;52.220;8.792;2024-02-14T08:06:25;8.40;1.00
7366;DHT22;3723;52.220;8.792;2024-02-14T08:08:54;8.50;1.00
7366;DHT22;3723;52.220;8.792;2024-02-14T08:11:24;8.50;1.00
7366;DHT22;3723;52.220;8.792;2024-02-14T08:13:51;8.50;1.00
7366;DHT22;3723;52.220;8.792;2024-02-14T08:16:18;8.60;1.00
7366;DHT22;3723;52.220;8.792;2024-02-14T08:18:44;8.60;1.00
7366;DHT22;3723;52.220;8.792;2024-02-14T08:21:11;8.60;1.00
7366;DHT22;3723;52.220;8.792;2024-02-14T08:23:38;8.60;1.00
7366;DHT22;3723;52.220;8.792;2024-02-14T08:26:08;8.70;1.00
7366;DHT22;3723;52.220;8.792;2024-02-14T08:28:36;8.70;1.00
7366;DHT22;3723;52.220;8.792;2024-02-14T08:31:09;8.80;1.00
7366;DHT22;3723;52.220;8.792;2024-02-14T08:33:36;8.80;1.00
7366;DHT22;3723;52.220;8.792;2024-02-14T08:36:03;8.80;1.00
7366;DHT22;3723;52.220;8.792;2024-02-14T08:38:30;8.80;1.00
7366;DHT22;3723;52.220;8.792;2024-02-14T08:41:03;8.80;1.00
7366;DHT22;3723;52.220;8.792;2024-02-14T08:43:31;8.80;1.00
7366;DHT22;3723;52.220;8.792;2024-02-14T08:45:59;8.80;1.00
7366;DHT22;3723;52.220;8.792;2024-02-14T08:48:26;8.90;1.00
7366;DHT22;3723;52.220;8.792;2024-02-14T08:50:54;8.90;1.00
7366;DHT22;3723;52.220;8.792;2024-02-14T08:53:21;8.90;1.00
7366;DHT22;3723;52.220;8.792;2024-02-14T08:55:48;8.90;1.00
7366;DHT22;3723;52.220;8.792;2024-02-14T08:58:15;8.90;1.00
7366;DHT22;3723;52.220;8.792;2024-02-14T09:00:43;8.90;1.00
7366;DHT22;3723;52.220;8.792;2024-02-14T09:03:10;8.90;1.00
7366;DHT22;3723;52.220;8.792;2024-02-14T09:05:37;9.00;1.00
7366;DHT22;3723;52.220;8.792;2024-02-14T09:08:23;9.00;1.00
7366;DHT22;3723;52.220;8.792;2024-02-14T09:10:50;9.00;1.00
7366;DHT22;3723;52.220;8.792;2024-02-14T09:13:17;9.00;1.00
7366;DHT22;3723;52.220;8.792;2024-02-14T09:15:45;9.00;1.00
7366;DHT22;3723;52.220;8.792;2024-02-14T09:18:13;9.10;1.00
7366;DHT22;3723;52.220;8.792;2024-02-14T09:20:43;9.00;1.00
7366;DHT22;3723;52.220;8.792;2024-02-14T09:23:11;9.00;1.00
7366;DHT22;3723;52.220;8.792;2024-02-14T09:25:39;9.00;1.00
7366;DHT22;3723;52.220;8.792;2024-02-14T09:28:06;9.10;1.00
7366;DHT22;3723;52.220;8.792;2024-02-14T09:30:34;9.00;1.00
7366;DHT22;3723;52.220;8.792;2024-02-14T09:33:02;9.10;1.00
7366;DHT22;3723;52.220;8.792;2024-02-14T09:35:30;9.10;1.00
7366;DHT22;3723;52.220;8.792;2024-02-14T09:37:57;9.10;1.00
7366;DHT22;3723;52.220;8.792;2024-02-14T09:40:25;9.20;1.00
7366;DHT22;3723;52.220;8.792;2024-02-14T09:42:53;9.20;1.00
7366;DHT22;3723;52.220;8.792;2024-02-14T09:45:22;9.30;1.00
7366;DHT22;3723;52.220;8.792;2024-02-14T09:47:51;9.30;1.00
7366;DHT22;3723;52.220;8.792;2024-02-14T09:50:20;9.40;1.00
7366;DHT22;3723;52.220;8.792;2024-02-14T09:52:47;9.40;1.00
7366;DHT22;3723;52.220;8.792;2024-02-14T09:55:15;9.50;1.00
7366;DHT22;3723;52.220;8.792;2024-02-14T09:57:43;9.50;1.00
7366;DHT22;3723;52.220;8.792;2024-02-14T10:00:10;9.50;1.00
7366;DHT22;3723;52.220;8.792;2024-02-14T10:02:40;9.50;1.00
7366;DHT22;3723;52.220;8.792;2024-02-14T10:05:08;9.50;1.00
7366;DHT22;3723;52.220;8.792;2024-02-14T10:07:43;9.60;1.00
7366;DHT22;3723;52.220;8.792;2024-02-14T10:10:11;9.60;1.00
7366;DHT22;3723;52.220;8.792;2024-02-14T10:12:39;9.70;1.00
7366;DHT22;3723;52.220;8.792;2024-02-14T10:15:07;9.70;1.00
7366;DHT22;3723;52.220;8.792;2024-02-14T10:17:34;9.70;1.00
7366;DHT22;3723;52.220;8.792;2024-02-14T10:20:02;9.80;1.00
7366;DHT22;3723;52.220;8.792;2024-02-14T10:22:34;9.90;1.00
7366;DHT22;3723;52.220;8.792;2024-02-14T10:25:05;10.00;1.00
7366;DHT22;3723;52.220;8.792;2024-02-14T10:27:34;10.00;1.00
7366;DHT22;3723;52.220;8.792;2024-02-14T10:30:04;10.10;1.00
7366;DHT22;3723;52.220;8.792;2024-02-14T10:32:33;10.30;1.00
7366;DHT22;3723;52.220;8.792;2024-02-14T10:35:04;10.40;1.00
7366;DHT22;3723;52.220;8.792;2024-02-14T10:37:34;10.50;1.00
7366;DHT22;3723;52.220;8.792;2024-02-14T10:40:03;10.70;1.00
7366;DHT22;3723;52.220;8.792;2024-02-14T10:42:30;10.80;1.00
7366;DHT22;3723;52.220;8.792;2024-02-14T10:44:57;10.90;1.00
7366;DHT22;3723;52.220;8.792;2024-02-14T10:47:28;10.90;1.00
7366;DHT22;3723;52.220;8.792;2024-02-14T10:49:58;11.00;1.00
7366;DHT22;3723;52.220;8.792;2024-02-14T10:52:27;10.90;1.00
7366;DHT22;3723;52.220;8.792;2024-02-14T10:54:56;10.90;1.00
7366;DHT22;3723;52.220;8.792;2024-02-14T10:57:25;10.90;1.00
7366;DHT22;3723;52.220;8.792;2024-02-14T10:59:54;10.90;1.00
7366;DHT22;3723;52.220;8.792;2024-02-14T11:02:23;10.90;1.00
7366;DHT22;3723;52.220;8.792;2024-02-14T11:04:50;10.90;1.00
7366;DHT22;3723;52.220;8.792;2024-02-14T11:07:20;11.00;1.00
7366;DHT22;3723;52.220;8.792;2024-02-14T11:09:48;10.90;1.00
7366;DHT22;3723;52.220;8.792;2024-02-14T11:12:16;10.90;1.00
7366;DHT22;3723;52.220;8.792;2024-02-14T11:14:44;11.00;1.00
7366;DHT22;3723;52.220;8.792;2024-02-14T11:17:12;11.00;1.00
7366;DHT22;3723;52.220;8.792;2024-02-14T11:19:39;11.00;1.00
7366;DHT22;3723;52.220;8.792;2024-02-14T11:22:12;11.00;1.00
7366;DHT22;3723;52.220;8.792;2024-02-14T11:24:39;11.00;1.00
7366;DHT22;3723;52.220;8.792;2024-02-14T11:27:10;11.10;1.00
7366;DHT22;3723;52.220;8.792;2024-02-14T11:29:39;11.00;1.00
7366;DHT22;3723;52.220;8.792;2024-02-14T11:32:08;11.00;1.00
7366;DHT22;3723;52.220;8.792;2024-02-14T11:34:37;11.00;1.00
7366;DHT22;3723;52.220;8.792;2024-02-14T11:37:04;11.20;1.00
7366;DHT22;3723;52.220;8.792;2024-02-14T11:39:33;11.20;1.00
7366;DHT22;3723;52.220;8.792;2024-02-14T11:42:00;11.20;1.00
7366;DHT22;3723;52.220;8.792;2024-02-14T11:44:27;11.40;1.00
7366;DHT22;3723;52.220;8.792;2024-02-14T11:46:54;11.50;1.00
7366;DHT22;3723;52.220;8.792;2024-02-14T11:49:23;11.50;1.00
7366;DHT22;3723;52.220;8.792;2024-02-14T11:51:50;11.60;1.00
7366;DHT22;3723;52.220;8.792;2024-02-14T11:54:18;11.60;1.00
7366;DHT22;3723;52.220;8.792;2024-02-14T11:56:46;11.70;1.00
7366;DHT22;3723;52.220;8.792;2024-02-14T11:59:13;11.70;1.00
7366;DHT22;3723;52.220;8.792;2024-02-14T12:01:41;11.60;1.00
7366;DHT22;3723;52.220;8.792;2024-02-14T12:04:09;11.60;1.00
7366;DHT22;3723;52.220;8.792;2024-02-14T12:06:39;11.40;1.00
7366;DHT22;3723;52.220;8.792;2024-02-14T12:09:07;11.40;1.00
7366;DHT22;3723;52.220;8.792;2024-02-14T12:11:35;11.30;1.00
7366;DHT22;3723;52.220;8.792;2024-02-14T12:14:03;11.40;1.00
7366;DHT22;3723;52.220;8.792;2024-02-14T12:16:31;11.40;1.00
7366;DHT22;3723;52.220;8.792;2024-02-14T12:19:04;11.40;1.00
7366;DHT22;3723;52.220;8.792;2024-02-14T12:21:34;11.30;1.00
7366;DHT22;3723;52.220;8.792;2024-02-14T12:24:06;11.50;1.00
7366;DHT22;3723;52.220;8.792;2024-02-14T12:26:33;11.50;1.00
7366;DHT22;3723;52.220;8.792;2024-02-14T12:29:01;11.60;1.00
7366;DHT22;3723;52.220;8.792;2024-02-14T12:31:30;11.60;1.00
7366;DHT22;3723;52.220;8.792;2024-02-14T12:33:57;11.50;1.00
7366;DHT22;3723;52.220;8.792;2024-02-14T12:36:25;11.50;1.00
7366;DHT22;3723;52.220;8.792;2024-02-14T12:38:53;11.40;1.00
7366;DHT22;3723;52.220;8.792;2024-02-14T12:41:22;11.40;1.00
7366;DHT22;3723;52.220;8.792;2024-02-14T12:43:52;11.30;1.00
7366;DHT22;3723;52.220;8.792;2024-02-14T12:46:19;11.40;1.00
7366;DHT22;3723;52.220;8.792;2024-02-14T12:48:46;11.40;1.00
7366;DHT22;3723;52.220;8.792;2024-02-14T12:51:13;11.30;1.00
7366;DHT22;3723;52.220;8.792;2024-02-14T12:53:40;11.40;1.00
7366;DHT22;3723;52.220;8.792;2024-02-14T12:56:08;11.40;1.00
7366;DHT22;3723;52.220;8.792;2024-02-14T12:58:36;11.50;1.00
7366;DHT22;3723;52.220;8.792;2024-02-14T13:01:03;11.60;1.00
7366;DHT22;3723;52.220;8.792;2024-02-14T13:03:31;11.60;1.00
7366;DHT22;3723;52.220;8.792;2024-02-14T13:05:58;11.70;1.00
7366;DHT22;3723;52.220;8.792;2024-02-14T13:08:25;11.70;1.00
7366;DHT22;3723;52.220;8.792;2024-02-14T13:10:52;11.60;1.00
7366;DHT22;3723;52.220;8.792;2024-02-14T13:13:19;11.60;1.00
7366;DHT22;3723;52.220;8.792;2024-02-14T13:15:48;11.60;1.00
7366;DHT22;3723;52.220;8.792;2024-02-14T13:18:15;11.50;1.00
7366;DHT22;3723;52.220;8.792;2024-02-14T13:20:42;11.60;1.00
7366;DHT22;3723;52.220;8.792;2024-02-14T13:23:10;11.50;1.00
7366;DHT22;3723;52.220;8.792;2024-02-14T13:25:37;11.50;1.00
7366;DHT22;3723;52.220;8.792;2024-02-14T13:28:04;11.40;1.00
7366;DHT22;3723;52.220;8.792;2024-02-14T13:30:32;11.40;1.00
7366;DHT22;3723;52.220;8.792;2024-02-14T13:33:00;11.40;1.00
7366;DHT22;3723;52.220;8.792;2024-02-14T13:35:28;11.30;1.00
7366;DHT22;3723;52.220;8.792;2024-02-14T13:37:56;11.30;1.00
7366;DHT22;3723;52.220;8.792;2024-02-14T13:40:24;11.30;1.00
7366;DHT22;3723;52.220;8.792;2024-02-14T13:42:50;11.30;1.00
7366;DHT22;3723;52.220;8.792;2024-02-14T13:45:17;11.30;1.00
7366;DHT22;3723;52.220;8.792;2024-02-14T13:47:44;11.30;1.00
7366;DHT22;3723;52.220;8.792;2024-02-14T13:50:13;11.30;1.00
7366;DHT22;3723;52.220;8.792;2024-02-14T13:52:40;11.30;1.00
7366;DHT22;3723;52.220;8.792;2024-02-14T13:55:07;11.30;1.00
7366;DHT22;3723;52.220;8.792;2024-02-14T13:57:36;11.30;1.00
7366;DHT22;3723;52.220;8.792;2024-02-14T14:00:05;11.30;1.00
7366;DHT22;3723;52.220;8.792;2024-02-14T14:02:33;11.30;1.00
7366;DHT22;3723;52.220;8.792;2024-02-14T14:05:02;11.40;1.00
7366;DHT22;3723;52.220;8.792;2024-02-14T14:07:31;11.40;1.00
7366;DHT22;3723;52.220;8.792;2024-02-14T14:09:59;11.40;1.00
7366;DHT22;3723;52.220;8.792;2024-02-14T14:12:25;11.30;1.00
7366;DHT22;3723;52.220;8.792;2024-02-14T14:14:52;11.30;1.00
7366;DHT22;3723;52.220;8.792;2024-02-14T14:17:19;11.30;1.00
7366;DHT22;3723;52.220;8.792;2024-02-14T14:19:46;11.30;1.00
7366;DHT22;3723;52.220;8.792;2024-02-14T14:22:13;11.30;1.00
7366;DHT22;3723;52.220;8.792;2024-02-14T14:24:41;11.40;1.00
7366;DHT22;3723;52.220;8.792;2024-02-14T14:27:08;11.40;1.00
7366;DHT22;3723;52.220;8.792;2024-02-14T14:29:39;11.40;1.00
7366;DHT22;3723;52.220;8.792;2024-02-14T14:32:07;11.40;1.00
7366;DHT22;3723;52.220;8.792;2024-02-14T14:34:33;11.40;1.00
7366;DHT22;3723;52.220;8.792;2024-02-14T14:37:01;11.40;1.00
7366;DHT22;3723;52.220;8.792;2024-02-14T14:39:28;11.40;1.00
7366;DHT22;3723;52.220;8.792;2024-02-14T14:41:58;11.30;1.00
7366;DHT22;3723;52.220;8.792;2024-02-14T14:44:24;11.30;1.00
7366;DHT22;3723;52.220;8.792;2024-02-14T14:46:52;11.30;1.00
7366;DHT22;3723;52.220;8.792;2024-02-14T14:49:19;11.30;1.00
7366;DHT22;3723;52.220;8.792;2024-02-14T14:51:46;11.30;1.00
7366;DHT22;3723;52.220;8.792;2024-02-14T14:54:13;11.30;1.00
7366;DHT22;3723;52.220;8.792;2024-02-14T14:56:40;11.30;1.00
7366;DHT22;3723;52.220;8.792;2024-02-14T14:59:09;11.40;1.00
7366;DHT22;3723;52.220;8.792;2024-02-14T15:01:36;11.40;1.00
7366;DHT22;3723;52.220;8.792;2024-02-14T15:04:04;11.40;1.00
7366;DHT22;3723;52.220;8.792;2024-02-14T15:06:32;11.40;1.00
7366;DHT22;3723;52.220;8.792;2024-02-14T15:08:59;11.40;1.00
7366;DHT22;3723;52.220;8.792;2024-02-14T15:11:26;11.50;1.00
7366;DHT22;3723;52.220;8.792;2024-02-14T15:13:54;11.50;1.00
7366;DHT22;3723;52.220;8.792;2024-02-14T15:16:22;11.50;1.00
7366;DHT22;3723;52.220;8.792;2024-02-14T15:18:49;11.50;1.00
7366;DHT22;3723;52.220;8.792;2024-02-14T15:21:16;11.50;1.00
7366;DHT22;3723;52.220;8.792;2024-02-14T15:23:43;11.40;1.00
7366;DHT22;3723;52.220;8.792;2024-02-14T15:26:10;11.30;1.00
7366;DHT22;3723;52.220;8.792;2024-02-14T15:28:38;11.30;1.00
7366;DHT22;3723;52.220;8.792;2024-02-14T15:31:10;11.30;1.00
7366;DHT22;3723;52.220;8.792;2024-02-14T15:33:56;11.20;1.00
7366;DHT22;3723;52.220;8.792;2024-02-14T15:36:23;11.20;1.00
7366;DHT22;3723;52.220;8.792;2024-02-14T15:38:51;11.10;1.00
7366;DHT22;3723;52.220;8.792;2024-02-14T15:41:18;11.10;1.00
7366;DHT22;3723;52.220;8.792;2024-02-14T15:43:45;11.10;1.00
7366;DHT22;3723;52.220;8.792;2024-02-14T15:46:12;11.10;1.00
7366;DHT22;3723;52.220;8.792;2024-02-14T15:48:40;11.10;1.00
7366;DHT22;3723;52.220;8.792;2024-02-14T15:51:08;11.10;1.00
7366;DHT22;3723;52.220;8.792;2024-02-14T15:53:35;11.10;1.00
7366;DHT22;3723;52.220;8.792;2024-02-14T15:56:04;11.10;1.00
7366;DHT22;3723;52.220;8.792;2024-02-14T15:58:31;11.10;1.00
7366;DHT22;3723;52.220;8.792;2024-02-14T16:00:58;11.10;1.00
7366;DHT22;3723;52.220;8.792;2024-02-14T16:03:25;11.00;1.00
7366;DHT22;3723;52.220;8.792;2024-02-14T16:05:54;11.00;1.00
7366;DHT22;3723;52.220;8.792;2024-02-14T16:08:22;11.00;1.00
7366;DHT22;3723;52.220;8.792;2024-02-14T16:10:49;10.90;1.00
7366;DHT22;3723;52.220;8.792;2024-02-14T16:13:16;10.90;1.00
7366;DHT22;3723;52.220;8.792;2024-02-14T16:15:43;10.80;1.00
7366;DHT22;3723;52.220;8.792;2024-02-14T16:18:10;10.80;1.00
7366;DHT22;3723;52.220;8.792;2024-02-14T16:20:37;10.70;1.00
7366;DHT22;3723;52.220;8.792;2024-02-14T16:23:04;10.70;1.00
7366;DHT22;3723;52.220;8.792;2024-02-14T16:25:33;10.70;1.00
7366;DHT22;3723;52.220;8.792;2024-02-14T16:28:03;10.60;1.00
7366;DHT22;3723;52.220;8.792;2024-02-14T16:30:31;10.60;1.00
7366;DHT22;3723;52.220;8.792;2024-02-14T16:32:58;10.60;1.00